createdAt,value
2023-02-16T00:00:21.672Z,93.69
2023-02-16T00:05:21.684Z,93.69
2023-02-16T00:10:21.500Z,94.00
2023-02-16T00:15:21.533Z,94.10
2023-02-16T00:20:21.377Z,94.10
2023-02-16T00:25:21.304Z,94.00
2023-02-16T00:30:21.390Z,94.31
2023-02-16T00:35:21.214Z,94.31
2023-02-16T00:40:21.156Z,94.21
2023-02-16T00:45:21.094Z,94.52
2023-02-16T00:50:20.977Z,94.42
2023-02-16T00:55:20.973Z,94.78
2023-02-16T01:00:20.846Z,94.88
2023-02-16T01:05:20.771Z,94.67
2023-02-16T01:10:20.760Z,94.78
2023-02-16T01:15:20.733Z,94.98
2023-02-16T01:20:20.578Z,95.09
2023-02-16T01:25:20.560Z,94.46
2023-02-16T01:30:20.496Z,94.88
2023-02-16T01:35:20.379Z,94.88
2023-02-16T01:40:20.388Z,94.46
2023-02-16T01:45:20.409Z,94.67
2023-02-16T01:50:20.169Z,94.46
2023-02-16T01:55:20.126Z,94.57
2023-02-16T02:00:20.065Z,94.88
2023-02-16T02:05:20.158Z,94.78
2023-02-16T02:10:19.967Z,94.57
2023-02-16T02:15:19.912Z,94.57
2023-02-16T02:20:19.823Z,95.13
2023-02-16T02:25:19.760Z,95.23
2023-02-16T02:30:19.719Z,95.23
2023-02-16T02:35:19.626Z,95.23
2023-02-16T02:40:19.552Z,95.13
2023-02-16T02:45:19.494Z,95.23
2023-02-16T02:50:19.477Z,95.13
2023-02-16T02:55:19.334Z,95.34
2023-02-16T03:00:19.307Z,95.44
2023-02-16T03:05:19.288Z,94.92
2023-02-16T03:10:19.137Z,94.82
2023-02-16T03:15:19.097Z,95.03
2023-02-16T03:20:19.031Z,94.92
2023-02-16T03:25:18.980Z,94.82
2023-02-16T03:30:18.989Z,94.82
2023-02-16T03:35:18.813Z,95.03
2023-02-16T03:40:18.837Z,95.23
2023-02-16T03:45:18.727Z,95.28
2023-02-16T03:50:18.671Z,95.80
2023-02-16T03:55:18.586Z,96.11
2023-02-16T04:00:18.614Z,96.33
2023-02-16T04:05:18.550Z,95.86
2023-02-16T04:10:18.356Z,95.80
2023-02-16T04:15:18.339Z,95.90
2023-02-16T04:20:18.284Z,96.11
2023-02-16T04:25:18.294Z,96.22
2023-02-16T04:30:18.234Z,96.11
2023-02-16T04:35:18.073Z,96.11
2023-02-16T04:40:17.996Z,96.11
2023-02-16T04:45:18.005Z,96.22
2023-02-16T04:50:17.865Z,96.43
2023-02-16T04:55:17.826Z,96.33
2023-02-16T05:00:17.737Z,96.47
2023-02-16T05:05:17.678Z,96.78
2023-02-16T05:10:17.570Z,97.52
2023-02-16T05:15:17.527Z,97.27
2023-02-16T05:20:17.460Z,96.74
2023-02-16T05:25:17.413Z,96.37
2023-02-16T05:30:17.385Z,97.31
2023-02-16T05:35:17.308Z,97.16
2023-02-16T05:40:17.272Z,97.10
2023-02-16T05:45:17.199Z,97.16
2023-02-16T05:50:17.110Z,97.31
2023-02-16T05:55:17.030Z,97.20
2023-02-16T06:00:16.947Z,97.31
2023-02-16T06:05:16.929Z,97.62
2023-02-16T06:10:16.862Z,97.37
2023-02-16T06:15:16.806Z,96.95
2023-02-16T06:20:16.737Z,96.74
2023-02-16T06:25:16.671Z,96.84
2023-02-16T06:30:16.634Z,96.84
2023-02-16T06:35:16.510Z,96.84
2023-02-16T06:40:16.476Z,96.38
2023-02-16T06:45:16.410Z,95.97
2023-02-16T06:50:16.326Z,95.61
2023-02-16T06:55:16.296Z,95.19
2023-02-16T07:00:16.221Z,94.63
2023-02-16T07:05:16.133Z,94.10
2023-02-16T07:10:16.077Z,93.85
2023-02-16T07:15:16.009Z,93.18
2023-02-16T07:20:15.925Z,92.66
2023-02-16T07:25:15.961Z,92.35
2023-02-16T07:30:15.874Z,92.10
2023-02-16T07:35:15.823Z,91.58
2023-02-16T07:40:15.720Z,91.75
2023-02-16T07:45:15.629Z,90.87
2023-02-16T07:50:15.921Z,89.89
2023-02-16T07:55:15.525Z,87.94
2023-02-16T08:00:15.397Z,86.86
2023-02-16T08:05:15.372Z,85.78
2023-02-16T08:10:15.302Z,84.46
2023-02-16T08:15:15.236Z,82.80
2023-02-16T08:20:15.145Z,82.97
2023-02-16T08:25:15.114Z,81.79
2023-02-16T08:30:15.096Z,80.99
2023-02-16T08:35:14.974Z,79.95
2023-02-16T08:40:14.893Z,79.60
2023-02-16T08:45:14.874Z,78.60
2023-02-16T08:50:14.896Z,78.05
2023-02-16T08:55:14.680Z,78.15
2023-02-16T09:00:14.928Z,77.19
2023-02-16T09:05:14.549Z,75.95
2023-02-16T09:10:14.521Z,76.60
2023-02-16T09:15:14.429Z,77.53
2023-02-16T09:20:14.370Z,76.53
2023-02-16T09:25:14.304Z,76.60
2023-02-16T09:30:14.235Z,74.36
2023-02-16T09:35:14.154Z,72.96
2023-02-16T09:40:14.108Z,73.16
2023-02-16T09:45:14.068Z,72.51
2023-02-16T09:50:13.956Z,72.20
2023-02-16T09:55:13.921Z,71.99
2023-02-16T10:00:13.814Z,72.23
2023-02-16T10:05:13.758Z,72.41
2023-02-16T10:10:13.679Z,72.37
2023-02-16T10:15:13.629Z,71.62
2023-02-16T10:20:13.576Z,71.14
2023-02-16T10:25:13.561Z,71.96
2023-02-16T10:30:13.497Z,72.24
2023-02-16T10:35:13.399Z,70.76
2023-02-16T10:40:13.281Z,70.56
2023-02-16T10:45:13.269Z,70.32
2023-02-16T10:50:13.179Z,72.17
2023-02-16T10:55:13.112Z,71.31
2023-02-16T11:00:13.048Z,69.43
2023-02-16T11:05:12.996Z,69.32
2023-02-16T11:10:12.911Z,69.32
2023-02-16T11:15:12.854Z,68.48
2023-02-16T11:20:12.774Z,68.78
2023-02-16T11:25:12.734Z,68.03
2023-02-16T11:30:12.700Z,67.72
2023-02-16T11:35:12.654Z,67.52
2023-02-16T11:40:12.503Z,66.97
2023-02-16T11:45:12.490Z,67.59
2023-02-16T11:50:12.424Z,67.66
2023-02-16T11:55:12.346Z,66.63
2023-02-16T12:00:12.335Z,67.11
2023-02-16T12:05:12.314Z,66.50
2023-02-16T12:10:12.265Z,66.16
2023-02-16T12:15:12.109Z,65.45
2023-02-16T12:20:12.038Z,65.42
2023-02-16T12:25:11.934Z,65.11
2023-02-16T12:30:12.031Z,65.39
2023-02-16T12:35:11.793Z,63.92
2023-02-16T12:40:11.775Z,64.43
2023-02-16T12:45:11.679Z,63.79
2023-02-16T12:50:11.592Z,64.30
2023-02-16T12:55:11.515Z,63.66
2023-02-16T13:00:11.452Z,63.86
2023-02-16T13:05:11.391Z,64.99
2023-02-16T13:10:11.321Z,63.66
2023-02-16T13:15:11.237Z,64.37
2023-02-16T13:20:11.198Z,65.33
2023-02-16T13:25:11.149Z,65.63
2023-02-16T13:30:11.084Z,64.81
2023-02-16T13:35:10.998Z,64.74
2023-02-16T13:40:10.922Z,65.25
2023-02-16T13:45:10.858Z,65.56
2023-02-16T13:50:10.796Z,65.05
2023-02-16T13:55:10.738Z,65.39
2023-02-16T14:00:10.690Z,65.93
2023-02-16T14:05:10.613Z,66.34
2023-02-16T14:10:10.561Z,66.98
2023-02-16T14:15:10.472Z,67.40
2023-02-16T14:20:10.430Z,67.11
2023-02-16T14:25:10.343Z,67.43
2023-02-16T14:30:10.376Z,68.38
2023-02-16T14:35:10.201Z,68.10
2023-02-16T14:40:10.136Z,68.82
2023-02-16T14:45:10.069Z,69.88
2023-02-16T14:50:10.058Z,70.01
2023-02-16T14:55:09.948Z,69.91
2023-02-16T15:00:09.876Z,70.46
2023-02-16T15:05:09.884Z,70.36
2023-02-16T15:10:09.751Z,70.76
2023-02-16T15:15:09.695Z,71.51
2023-02-16T15:20:09.588Z,71.86
2023-02-16T15:25:09.625Z,72.41
2023-02-16T15:30:09.610Z,72.81
2023-02-16T15:35:09.454Z,73.68
2023-02-16T15:40:25.134Z,74.63
2023-02-16T15:45:10.361Z,75.18
2023-02-16T15:50:09.220Z,75.63
2023-02-16T15:55:09.200Z,76.39
2023-02-16T16:00:09.181Z,94.09
2023-02-16T16:05:09.127Z,89.54
2023-02-16T16:10:09.009Z,79.25
2023-02-16T16:15:08.942Z,60.83
2023-02-16T16:20:08.932Z,67.18
2023-02-16T16:25:08.795Z,72.34
2023-02-16T16:30:08.770Z,76.08
2023-02-16T16:35:08.684Z,78.05
2023-02-16T16:40:08.601Z,79.63
2023-02-16T16:45:08.523Z,81.05
2023-02-16T16:50:08.617Z,82.01
2023-02-16T16:55:08.477Z,82.67
2023-02-16T17:00:08.394Z,83.29
2023-02-16T17:05:08.259Z,83.50
2023-02-16T17:10:08.189Z,83.75
2023-02-16T17:15:08.352Z,84.37
2023-02-16T17:20:08.084Z,84.27
2023-02-16T17:25:08.100Z,84.37
2023-02-16T17:30:07.990Z,84.68
2023-02-16T17:35:07.869Z,84.82
2023-02-16T17:40:07.778Z,84.68
2023-02-16T17:45:07.744Z,84.58
2023-02-16T17:50:07.683Z,84.16
2023-02-16T17:55:07.626Z,83.95
2023-02-16T18:00:07.531Z,84.47
2023-02-16T18:05:07.458Z,84.37
2023-02-16T18:10:07.575Z,84.27
2023-02-16T18:15:07.379Z,84.37
2023-02-16T18:20:07.274Z,84.16
2023-02-16T18:25:07.225Z,84.27
2023-02-16T18:30:07.199Z,84.27
2023-02-16T18:35:07.095Z,87.47
2023-02-16T18:40:07.018Z,85.61
2023-02-16T18:45:07.681Z,84.92
2023-02-16T18:50:06.905Z,85.13
2023-02-16T18:55:06.818Z,84.92
2023-02-16T19:00:06.783Z,87.16
2023-02-16T19:05:06.726Z,86.65
2023-02-16T19:10:06.618Z,84.51
2023-02-16T19:15:06.577Z,85.13
2023-02-16T19:20:06.469Z,85.44
2023-02-16T19:25:06.442Z,86.99
2023-02-16T19:30:06.433Z,85.55
2023-02-16T19:35:06.334Z,85.24
2023-02-16T19:40:06.273Z,84.72
2023-02-16T19:45:06.162Z,84.92
2023-02-16T19:50:06.108Z,84.88
2023-02-16T19:55:06.062Z,83.29
2023-02-16T20:00:06.053Z,82.78
2023-02-16T20:05:05.909Z,82.43
2023-02-16T20:10:05.809Z,82.74
2023-02-16T20:15:05.763Z,83.67
2023-02-16T20:20:05.770Z,82.74
2023-02-16T20:25:05.637Z,83.25
2023-02-16T20:30:05.613Z,83.71
2023-02-16T20:35:05.525Z,84.01
2023-02-16T20:40:05.495Z,84.01
2023-02-16T20:45:05.397Z,84.43
2023-02-16T20:50:05.384Z,84.33
2023-02-16T20:55:05.237Z,84.58
2023-02-16T21:00:05.248Z,84.37
2023-02-16T21:05:05.124Z,84.88
2023-02-16T21:10:05.054Z,84.78
2023-02-16T21:15:04.992Z,84.74
2023-02-16T21:20:04.916Z,83.53
2023-02-16T21:25:04.870Z,83.18
2023-02-16T21:30:05.206Z,82.76
2023-02-16T21:35:04.793Z,82.21
2023-02-16T21:40:04.750Z,81.24
2023-02-16T21:45:04.620Z,81.24
2023-02-16T21:50:04.529Z,80.83
2023-02-16T21:55:04.456Z,81.45
2023-02-16T22:00:04.432Z,81.76
2023-02-16T22:05:04.383Z,82.38
2023-02-16T22:10:04.253Z,82.83
2023-02-16T22:15:04.205Z,82.38
2023-02-16T22:20:04.174Z,82.59
2023-02-16T22:25:04.089Z,82.79
2023-02-16T22:30:04.059Z,81.82
2023-02-16T22:35:03.930Z,81.72
2023-02-16T22:40:03.861Z,82.34
2023-02-16T22:45:03.909Z,82.65
2023-02-16T22:50:03.805Z,83.17
2023-02-16T22:55:03.695Z,82.30
2023-02-16T23:00:03.710Z,82.10
2023-02-16T23:05:03.596Z,81.79
2023-02-16T23:10:03.485Z,81.79
2023-02-16T23:15:03.444Z,81.68
2023-02-16T23:20:03.415Z,82.20
2023-02-16T23:25:03.537Z,82.40
2023-02-16T23:30:03.283Z,82.71
2023-02-16T23:35:03.135Z,82.92
2023-02-16T23:40:03.084Z,82.82
2023-02-16T23:45:02.996Z,83.23
2023-02-16T23:50:02.965Z,83.44
2023-02-16T23:55:03.026Z,83.33
